Time;durP1;ratioP1;P1;durP2;ratioP2;P2;SDS_P1;SDS_P2;PMS_P1;PMS_P2;Temp;Humidity;BMP_temperature;BMP_pressure;BME280_temperature;BME280_humidity;BME280_pressure;Samples;Min_cycle;Max_cycle;Signal;HPM_P1;HPM_P2
2023/04/14 00:00:40;;;;;;;10.85;6.30;;;7.60;99.90;;;;;;5013309;28;20030;-69
2023/04/14 00:03:06;;;;;;;9.70;5.80;;;7.50;99.90;;;;;;5017529;28;20022;-69
2023/04/14 00:05:33;;;;;;;10.88;6.18;;;7.60;99.90;;;;;;4996076;28;20021;-68
2023/04/14 00:07:59;;;;;;;10.65;6.78;;;7.50;99.90;;;;;;5014648;28;20576;-68
2023/04/14 00:10:25;;;;;;;10.38;6.32;;;7.50;99.90;;;;;;5013285;28;20532;-70
2023/04/14 00:12:51;;;;;;;11.00;6.35;;;7.50;99.90;;;;;;5013399;28;21628;-70
2023/04/14 00:15:17;;;;;;;8.15;5.60;;;7.50;99.90;;;;;;5012172;28;20042;-70
2023/04/14 00:17:43;;;;;;;12.23;6.75;;;7.50;99.90;;;;;;5031041;28;20377;-69
2023/04/14 00:20:09;;;;;;;10.10;6.32;;;7.50;99.90;;;;;;5013166;28;20128;-69
2023/04/14 00:22:35;;;;;;;9.52;5.22;;;7.50;99.90;;;;;;5015706;28;20512;-70
2023/04/14 00:25:01;;;;;;;9.85;6.57;;;7.50;99.90;;;;;;5019951;28;20033;-67
2023/04/14 00:27:27;;;;;;;13.95;5.65;;;7.50;99.90;;;;;;5017877;28;20033;-68
2023/04/14 00:29:53;;;;;;;11.50;6.30;;;7.50;99.90;;;;;;5013738;28;20038;-68
2023/04/14 00:32:19;;;;;;;11.05;6.10;;;7.50;99.90;;;;;;5013827;28;20029;-68
2023/04/14 00:34:45;;;;;;;10.13;6.28;;;7.50;99.90;;;;;;5018504;28;20569;-70
2023/04/14 00:37:10;;;;;;;9.98;5.97;;;7.40;99.90;;;;;;5018925;28;20048;-67
2023/04/14 00:39:36;;;;;;;8.07;5.38;;;7.40;99.90;;;;;;5014670;28;20077;-68
2023/04/14 00:42:02;;;;;;;9.60;6.22;;;7.40;99.90;;;;;;5015480;28;20083;-68
2023/04/14 00:44:28;;;;;;;11.30;6.20;;;7.40;99.90;;;;;;5015350;28;20040;-69
2023/04/14 00:46:55;;;;;;;9.75;6.55;;;7.40;99.90;;;;;;5016836;28;20494;-68
2023/04/14 00:49:22;;;;;;;10.52;6.40;;;7.40;99.90;;;;;;5016291;28;20041;-68
2023/04/14 00:51:48;;;;;;;9.32;6.15;;;7.40;99.90;;;;;;5016917;28;20026;-68
2023/04/14 00:54:18;;;;;;;10.63;6.10;;;7.40;99.90;;;;;;5017635;28;20254;-69
2023/04/14 00:56:49;;;;;;;8.95;5.95;;;7.30;99.90;;;;;;5012379;28;20042;-68
2023/04/14 00:59:16;;;;;;;9.18;6.30;;;7.30;99.90;;;;;;5013023;28;20102;-69
2023/04/14 01:01:41;;;;;;;10.05;6.95;;;7.30;99.90;;;;;;5015710;28;20030;-69
2023/04/14 01:04:07;;;;;;;11.35;6.85;;;7.30;99.90;;;;;;5013818;28;20549;-69
2023/04/14 01:06:33;;;;;;;9.55;6.05;;;7.30;99.90;;;;;;5016359;28;20038;-68
2023/04/14 01:08:59;;;;;;;10.73;6.28;;;7.20;99.90;;;;;;5000128;28;20075;-69
2023/04/14 01:11:44;;;;;;;9.90;6.25;;;7.20;99.90;;;;;;5016465;28;20034;-68
2023/04/14 01:14:17;;;;;;;11.48;5.90;;;7.20;99.90;;;;;;5017724;28;20067;-70
2023/04/14 01:16:48;;;;;;;9.25;6.43;;;7.20;99.90;;;;;;5016657;28;20032;-68
2023/04/14 01:19:26;;;;;;;;;;;7.20;99.90;;;;;;5017077;28;20029;-68
2023/04/14 01:21:58;;;;;;;9.55;6.18;;;7.10;99.90;;;;;;5017577;28;19910;-70
2023/04/14 01:25:01;;;;;;;11.60;6.60;;;7.10;99.90;;;;;;5017452;28;20017;-70
2023/04/14 01:27:33;;;;;;;8.80;6.45;;;7.10;99.90;;;;;;5047576;28;20104;-69
2023/04/14 01:30:07;;;;;;;9.60;6.65;;;7.10;99.90;;;;;;5022583;28;20049;-69
2023/04/14 01:32:41;;;;;;;10.80;6.40;;;7.10;99.90;;;;;;5013493;28;20080;-68
2023/04/14 01:35:19;;;;;;;11.63;6.70;;;7.00;99.90;;;;;;5016794;28;20045;-69
2023/04/14 01:37:48;;;;;;;8.30;5.93;;;7.00;99.90;;;;;;5019363;28;20079;-68
2023/04/14 01:40:18;;;;;;;9.85;6.55;;;7.00;99.90;;;;;;5018356;28;20490;-70
2023/04/14 01:42:48;;;;;;;9.70;6.75;;;7.00;99.90;;;;;;5015195;28;20033;-70
2023/04/14 01:45:24;;;;;;;10.27;6.50;;;7.00;99.90;;;;;;5017874;28;20025;-69
2023/04/14 01:47:51;;;;;;;10.10;6.82;;;7.00;99.90;;;;;;5016673;28;20029;-70
2023/04/14 01:50:19;;;;;;;9.55;6.30;;;6.90;99.90;;;;;;5015096;28;20025;-69
2023/04/14 01:52:48;;;;;;;7.88;6.25;;;6.90;99.90;;;;;;5047628;28;20026;-68
2023/04/14 01:55:17;;;;;;;8.48;6.07;;;6.90;99.90;;;;;;5015887;28;20022;-70
2023/04/14 01:57:45;;;;;;;10.57;6.00;;;6.90;99.90;;;;;;5015999;28;20045;-70
2023/04/14 02:00:12;;;;;;;10.52;6.97;;;6.90;99.90;;;;;;5016675;28;20394;-70
2023/04/14 02:02:40;;;;;;;10.85;6.55;;;6.80;99.90;;;;;;5015096;28;20121;-69
2023/04/14 02:05:08;;;;;;;11.48;6.88;;;6.80;99.90;;;;;;5016880;28;20033;-70
2023/04/14 02:07:35;;;;;;;8.93;6.30;;;6.80;99.90;;;;;;5016442;28;20548;-68
2023/04/14 02:10:04;;;;;;;8.95;6.43;;;6.80;99.90;;;;;;5016640;28;20046;-70
2023/04/14 02:12:30;;;;;;;9.63;6.40;;;6.80;99.90;;;;;;5016102;28;20064;-69
2023/04/14 02:14:59;;;;;;;7.95;5.85;;;6.80;99.90;;;;;;5015091;28;20041;-70
2023/04/14 02:17:26;;;;;;;10.95;6.60;;;6.70;99.90;;;;;;5019354;28;20044;-70
2023/04/14 02:19:53;;;;;;;11.23;7.03;;;6.70;99.90;;;;;;5012672;28;20034;-68
2023/04/14 02:22:19;;;;;;;10.20;7.00;;;6.70;99.90;;;;;;5016354;28;20030;-70
2023/04/14 02:24:48;;;;;;;9.32;6.63;;;6.70;99.90;;;;;;5015927;28;20490;-68
2023/04/14 02:27:24;;;;;;;10.15;6.50;;;6.70;99.90;;;;;;5014953;28;20121;-69
2023/04/14 02:29:53;;;;;;;9.98;6.53;;;6.70;99.90;;;;;;5014735;28;20033;-69
2023/04/14 02:32:23;;;;;;;9.32;6.88;;;6.70;99.90;;;;;;5012963;28;20026;-70
2023/04/14 02:35:00;;;;;;;13.90;7.25;;;6.70;99.90;;;;;;5018406;28;20034;-68
2023/04/14 02:37:34;;;;;;;11.90;7.20;;;6.70;99.90;;;;;;5014471;28;20136;-72
2023/04/14 02:40:06;;;;;;;10.00;7.40;;;6.70;99.90;;;;;;5013377;28;20034;-70
2023/04/14 02:42:36;;;;;;;8.75;6.55;;;6.70;99.90;;;;;;5044677;28;20026;-69
2023/04/14 02:45:05;;;;;;;10.23;6.90;;;6.60;99.90;;;;;;5014107;28;20041;-70
2023/04/14 02:47:36;;;;;;;10.52;7.47;;;6.60;99.90;;;;;;5016562;28;20038;-69
2023/04/14 02:50:04;;;;;;;12.10;6.70;;;6.60;99.90;;;;;;5015798;28;20484;-69
2023/04/14 02:52:31;;;;;;;9.60;6.90;;;6.60;99.90;;;;;;5013131;28;20049;-69
2023/04/14 02:54:59;;;;;;;9.27;6.60;;;6.60;99.90;;;;;;5013889;28;20163;-69
2023/04/14 02:57:25;;;;;;;11.45;6.72;;;6.50;99.90;;;;;;5012797;28;21339;-68
2023/04/14 02:59:53;;;;;;;9.60;6.95;;;6.50;99.90;;;;;;5014254;28;20096;-69
2023/04/14 03:02:20;;;;;;;10.60;7.65;;;6.50;99.90;;;;;;5048054;28;20113;-68
2023/04/14 03:04:46;;;;;;;10.00;7.45;;;6.50;99.90;;;;;;5030134;28;20087;-68
2023/04/14 03:07:14;;;;;;;11.73;7.35;;;6.60;99.90;;;;;;5015088;28;20050;-69
2023/04/14 03:09:41;;;;;;;10.20;6.88;;;6.50;99.90;;;;;;5015368;28;20048;-69
2023/04/14 03:12:07;;;;;;;11.75;7.00;;;6.50;99.90;;;;;;5014928;28;20022;-69
2023/04/14 03:14:34;;;;;;;11.60;7.30;;;6.50;99.90;;;;;;5015843;28;20036;-69
2023/04/14 03:17:00;;;;;;;9.70;7.18;;;6.50;99.90;;;;;;5012465;28;20038;-69
2023/04/14 03:19:28;;;;;;;13.20;7.97;;;6.50;99.90;;;;;;5016810;28;20462;-68
2023/04/14 03:21:55;;;;;;;13.55;7.53;;;6.50;99.90;;;;;;5016380;28;20431;-68
2023/04/14 03:24:29;;;;;;;11.43;7.57;;;6.50;99.90;;;;;;5013027;28;20021;-69
2023/04/14 03:27:08;;;;;;;9.80;6.72;;;6.50;99.90;;;;;;5015830;28;20068;-68
2023/04/14 03:29:39;;;;;;;10.65;7.20;;;6.40;99.90;;;;;;5014845;28;20116;-69
2023/04/14 03:32:07;;;;;;;11.85;7.47;;;6.40;99.90;;;;;;5045199;28;20049;-69
2023/04/14 03:34:40;;;;;;;10.05;6.97;;;6.40;99.90;;;;;;5013853;28;20037;-68
2023/04/14 03:37:07;;;;;;;11.05;7.68;;;6.40;99.90;;;;;;5013719;28;20087;-68
2023/04/14 03:39:37;;;;;;;11.20;7.82;;;6.40;99.90;;;;;;5013756;28;20036;-69
2023/04/14 03:42:06;;;;;;;12.32;7.60;;;6.40;99.90;;;;;;5010338;28;20022;-69
2023/04/14 03:44:35;;;;;;;11.95;7.53;;;6.40;99.90;;;;;;5015448;28;20034;-68
2023/04/14 03:47:02;;;;;;;10.32;6.88;;;6.30;99.90;;;;;;5016148;28;20033;-68
2023/04/14 03:49:32;;;;;;;11.88;8.02;;;6.40;99.90;;;;;;5013932;28;20095;-70
2023/04/14 03:52:04;;;;;;;11.18;7.65;;;6.30;99.90;;;;;;5015208;28;20442;-69
2023/04/14 03:54:32;;;;;;;14.15;8.30;;;6.30;99.90;;;;;;5015663;28;20037;-69
2023/04/14 03:57:00;;;;;;;12.30;7.35;;;6.30;99.90;;;;;;5015980;28;20033;-69
2023/04/14 03:59:28;;;;;;;14.85;8.27;;;6.30;99.90;;;;;;5012139;28;20056;-69
2023/04/14 04:01:54;;;;;;;12.98;8.00;;;6.30;99.90;;;;;;5014765;28;20080;-68
2023/04/14 04:04:23;;;;;;;10.75;7.68;;;6.30;99.90;;;;;;5013611;28;20025;-68
2023/04/14 04:06:50;;;;;;;14.32;8.35;;;6.30;99.90;;;;;;5017852;28;20105;-68
2023/04/14 04:09:18;;;;;;;10.57;7.88;;;6.30;99.90;;;;;;5015571;28;20041;-69
2023/04/14 04:11:46;;;;;;;13.77;8.55;;;6.30;99.90;;;;;;5012883;28;20153;-70
2023/04/14 04:14:13;;;;;;;13.45;8.18;;;6.20;99.90;;;;;;5014345;28;20048;-69
2023/04/14 04:16:41;;;;;;;15.52;8.55;;;6.20;99.90;;;;;;5011018;28;20057;-68
2023/04/14 04:19:09;;;;;;;12.95;8.70;;;6.20;99.90;;;;;;5010525;28;20168;-69
2023/04/14 04:21:39;;;;;;;13.98;8.82;;;6.20;99.90;;;;;;5012591;28;20128;-68
2023/04/14 04:24:07;;;;;;;14.15;8.38;;;6.20;99.90;;;;;;5011765;28;20405;-68
2023/04/14 04:26:35;;;;;;;13.85;9.10;;;6.20;99.90;;;;;;5009174;28;20029;-69
2023/04/14 04:29:03;;;;;;;16.50;9.10;;;6.20;99.90;;;;;;5016822;28;20156;-68
2023/04/14 04:31:31;;;;;;;12.10;8.38;;;6.20;99.90;;;;;;5008306;28;20036;-70
2023/04/14 04:33:57;;;;;;;12.77;8.75;;;6.20;99.90;;;;;;5018891;28;20082;-68
2023/04/14 04:36:26;;;;;;;14.23;8.77;;;6.20;99.90;;;;;;5009285;28;20029;-69
2023/04/14 04:38:52;;;;;;;14.18;8.85;;;6.20;99.90;;;;;;5037955;28;20034;-68
2023/04/14 04:41:25;;;;;;;14.90;9.68;;;6.20;99.90;;;;;;5008159;28;20026;-68
2023/04/14 04:43:51;;;;;;;14.65;8.48;;;6.20;99.90;;;;;;5014950;28;20041;-69
2023/04/14 04:46:39;;;;;;;12.13;8.73;;;6.20;99.90;;;;;;5010564;28;20029;-68
2023/04/14 04:49:05;;;;;;;11.95;8.20;;;6.20;99.90;;;;;;4992575;28;20508;-69
2023/04/14 04:51:31;;;;;;;15.90;9.50;;;6.20;99.90;;;;;;5012989;28;20034;-69
2023/04/14 04:53:56;;;;;;;15.00;8.50;;;6.20;99.90;;;;;;5014873;28;20037;-70
2023/04/14 04:56:22;;;;;;;14.05;8.23;;;6.20;99.90;;;;;;5014105;28;20029;-69
2023/04/14 04:58:48;;;;;;;12.18;8.90;;;6.10;99.90;;;;;;5015116;28;20030;-70
2023/04/14 05:01:15;;;;;;;13.68;8.73;;;6.20;99.90;;;;;;5010691;28;20091;-70
2023/04/14 05:03:41;;;;;;;14.00;8.63;;;6.20;99.90;;;;;;5012281;28;20109;-69
2023/04/14 05:06:07;;;;;;;14.02;9.55;;;6.10;99.90;;;;;;5010270;28;20924;-69
2023/04/14 05:08:33;;;;;;;15.02;9.45;;;6.10;99.90;;;;;;5008510;28;20076;-70
2023/04/14 05:10:58;;;;;;;17.08;9.40;;;6.20;99.90;;;;;;5011149;28;20086;-70
2023/04/14 05:13:24;;;;;;;13.95;9.57;;;6.20;99.90;;;;;;5026949;28;20486;-71
2023/04/14 05:15:50;;;;;;;16.23;8.80;;;6.20;99.90;;;;;;5015187;28;20049;-69
2023/04/14 05:18:16;;;;;;;13.68;9.15;;;6.20;99.90;;;;;;5023098;28;20045;-69
2023/04/14 05:20:42;;;;;;;12.40;8.45;;;6.20;99.90;;;;;;5023386;28;20033;-70
2023/04/14 05:23:08;;;;;;;13.77;8.25;;;6.30;99.90;;;;;;5045894;28;20030;-68
2023/04/14 05:25:34;;;;;;;12.75;8.48;;;6.30;99.90;;;;;;5008715;28;20022;-69
2023/04/14 05:28:01;;;;;;;14.98;8.68;;;6.30;99.90;;;;;;5015294;28;20585;-71
2023/04/14 05:30:26;;;;;;;13.32;7.63;;;6.40;99.90;;;;;;5010901;28;20038;-68
2023/04/14 05:32:52;;;;;;;14.95;8.43;;;6.40;99.90;;;;;;5016925;28;20025;-69
2023/04/14 05:35:18;;;;;;;13.88;9.20;;;6.40;99.90;;;;;;5039108;28;20030;-70
2023/04/14 05:37:44;;;;;;;12.00;8.82;;;7.10;99.90;;;;;;5003363;28;20040;-70
2023/04/14 05:40:10;;;;;;;12.65;8.38;;;6.90;99.90;;;;;;5014693;28;20271;-69
2023/04/14 05:42:36;;;;;;;16.40;8.93;;;6.80;99.90;;;;;;5009420;28;20030;-69
2023/04/14 05:45:03;;;;;;;15.82;8.55;;;6.80;99.90;;;;;;5014267;28;20381;-68
2023/04/14 05:47:28;;;;;;;14.40;8.60;;;6.80;99.90;;;;;;5015931;28;20025;-69
2023/04/14 05:49:54;;;;;;;11.50;7.55;;;6.70;99.90;;;;;;5011390;28;20597;-68
2023/04/14 05:52:20;;;;;;;12.32;7.25;;;6.70;99.90;;;;;;5012040;28;20037;-68
2023/04/14 05:54:46;;;;;;;12.27;8.00;;;6.70;99.90;;;;;;5011496;28;21436;-70
2023/04/14 05:57:12;;;;;;;11.15;7.63;;;6.80;99.90;;;;;;5018188;28;20026;-69
2023/04/14 05:59:37;;;;;;;10.63;6.97;;;6.80;99.90;;;;;;5017984;28;20418;-68
2023/04/14 06:02:05;;;;;;;11.85;7.55;;;6.80;99.90;;;;;;5011431;28;20066;-69
2023/04/14 06:04:32;;;;;;;10.48;7.32;;;6.80;99.90;;;;;;5000973;28;20431;-68
2023/04/14 06:06:58;;;;;;;10.93;6.80;;;6.80;99.90;;;;;;5013921;28;20056;-68
2023/04/14 06:09:24;;;;;;;11.57;6.65;;;6.80;99.90;;;;;;5019791;28;20062;-68
2023/04/14 06:11:50;;;;;;;9.52;5.90;;;6.90;99.90;;;;;;5018721;28;20630;-70
2023/04/14 06:14:15;;;;;;;12.38;7.10;;;6.90;99.90;;;;;;5017796;28;20473;-70
2023/04/14 06:16:41;;;;;;;9.50;6.72;;;6.90;99.90;;;;;;5017348;28;20092;-69
2023/04/14 06:19:07;;;;;;;13.90;8.02;;;6.90;99.90;;;;;;5019037;28;20428;-70
2023/04/14 06:21:34;;;;;;;10.10;6.70;;;6.90;99.90;;;;;;5014347;28;20387;-72
2023/04/14 06:23:59;;;;;;;10.57;6.45;;;7.00;99.90;;;;;;5016701;28;20036;-69
2023/04/14 06:26:25;;;;;;;11.52;7.18;;;6.90;99.90;;;;;;5020805;28;20088;-73
2023/04/14 06:28:51;;;;;;;12.02;7.05;;;7.00;99.90;;;;;;5019345;28;20036;-70
2023/04/14 06:31:17;;;;;;;11.30;7.05;;;7.00;99.90;;;;;;5002137;28;20087;-72
2023/04/14 06:33:42;;;;;;;13.10;7.63;;;7.10;99.90;;;;;;5016512;28;20037;-69
2023/04/14 06:36:08;;;;;;;11.18;6.55;;;7.10;99.90;;;;;;5014374;28;20024;-70
2023/04/14 06:38:34;;;;;;;10.60;6.47;;;7.20;99.90;;;;;;5015368;28;20041;-70
2023/04/14 06:41:00;;;;;;;11.13;6.35;;;7.20;99.90;;;;;;5014342;28;20109;-69
2023/04/14 06:43:27;;;;;;;14.95;6.65;;;7.30;99.90;;;;;;5016254;28;20057;-70
2023/04/14 06:45:53;;;;;;;12.10;5.95;;;7.30;99.90;;;;;;5011726;28;20040;-70
2023/04/14 06:48:19;;;;;;;10.95;5.18;;;7.30;99.90;;;;;;5012296;28;20037;-69
2023/04/14 06:50:52;;;;;;;9.05;5.05;;;7.40;99.90;;;;;;5016520;28;20040;-70
2023/04/14 06:53:18;;;;;;;9.57;4.85;;;7.40;99.90;;;;;;5015043;28;20038;-68
2023/04/14 06:55:44;;;;;;;10.13;4.57;;;7.40;99.90;;;;;;5018639;28;20033;-69
2023/04/14 06:58:09;;;;;;;6.43;4.20;;;7.40;99.90;;;;;;5015755;28;20113;-70
2023/04/14 07:00:35;;;;;;;6.57;4.65;;;7.50;99.90;;;;;;5001382;28;20033;-70
2023/04/14 07:03:01;;;;;;;8.95;4.47;;;7.50;99.90;;;;;;5017484;28;20026;-72
2023/04/14 07:05:27;;;;;;;6.97;4.38;;;7.60;99.90;;;;;;5011848;28;20449;-71
2023/04/14 07:07:52;;;;;;;9.20;4.80;;;7.60;99.90;;;;;;5017372;28;20030;-70
2023/04/14 07:10:18;;;;;;;10.05;4.88;;;7.60;99.90;;;;;;5016449;28;20080;-70
2023/04/14 07:12:47;;;;;;;8.07;4.20;;;7.70;99.90;;;;;;5015593;28;20029;-70
2023/04/14 07:15:15;;;;;;;8.18;4.43;;;7.70;99.90;;;;;;5014340;28;20116;-69
2023/04/14 07:17:41;;;;;;;8.48;4.95;;;7.80;99.90;;;;;;4995159;28;20486;-69
2023/04/14 07:20:09;;;;;;;7.28;4.47;;;7.80;99.90;;;;;;5013306;28;20045;-71
2023/04/14 07:22:34;;;;;;;6.63;4.38;;;7.90;99.90;;;;;;5016890;28;20030;-70
2023/04/14 07:25:00;;;;;;;8.50;4.18;;;8.00;99.90;;;;;;5016468;28;20029;-70
2023/04/14 07:27:27;;;;;;;8.02;4.38;;;8.00;99.90;;;;;;5014566;28;20029;-70
2023/04/14 07:29:53;;;;;;;6.43;4.47;;;8.00;99.90;;;;;;5016244;28;20025;-70
2023/04/14 07:32:18;;;;;;;9.18;5.05;;;8.10;99.90;;;;;;5009789;28;20026;-70
2023/04/14 07:34:44;;;;;;;10.77;4.68;;;8.10;99.90;;;;;;5015390;28;20030;-68
2023/04/14 07:37:10;;;;;;;8.55;5.40;;;8.20;99.90;;;;;;5018143;28;20417;-70
2023/04/14 07:39:36;;;;;;;7.82;4.90;;;8.20;99.90;;;;;;5016610;28;20057;-69
2023/04/14 07:42:01;;;;;;;10.40;4.63;;;8.20;99.90;;;;;;5020170;28;20032;-69
2023/04/14 07:44:27;;;;;;;8.15;4.88;;;8.30;99.90;;;;;;5014880;28;20424;-70
2023/04/14 07:46:53;;;;;;;7.25;4.30;;;8.30;99.90;;;;;;5017867;28;20327;-69
2023/04/14 07:49:19;;;;;;;8.18;4.35;;;8.30;99.90;;;;;;5016435;28;20113;-68
2023/04/14 07:51:44;;;;;;;9.93;4.75;;;8.40;99.90;;;;;;5016121;28;20077;-68
2023/04/14 07:54:10;;;;;;;10.20;4.93;;;8.40;99.90;;;;;;5015752;28;20037;-68
2023/04/14 07:56:36;;;;;;;10.60;4.90;;;8.40;99.90;;;;;;5014533;28;20064;-69
2023/04/14 07:59:02;;;;;;;9.07;3.75;;;8.50;99.90;;;;;;5014585;28;20030;-69
2023/04/14 08:01:28;;;;;;;8.93;4.10;;;8.50;99.90;;;;;;5013316;28;20033;-67
2023/04/14 08:03:53;;;;;;;7.03;3.88;;;8.50;99.90;;;;;;5013300;28;20087;-67
2023/04/14 08:06:19;;;;;;;7.35;3.42;;;8.60;99.90;;;;;;4997835;28;20156;-70
2023/04/14 08:08:45;;;;;;;9.88;4.50;;;8.60;99.90;;;;;;5016834;28;20053;-69
2023/04/14 08:11:11;;;;;;;12.10;5.25;;;8.60;99.90;;;;;;5018097;28;20084;-70
2023/04/14 08:13:37;;;;;;;7.45;4.40;;;8.70;99.90;;;;;;5018287;28;20546;-69
2023/04/14 08:16:02;;;;;;;8.73;3.88;;;8.80;99.90;;;;;;5003948;28;20485;-69
2023/04/14 08:18:29;;;;;;;7.68;3.90;;;8.90;99.90;;;;;;5018194;28;20051;-69
2023/04/14 08:20:55;;;;;;;8.10;3.40;;;8.90;99.90;;;;;;5050729;28;20132;-72
2023/04/14 08:23:21;;;;;;;8.93;3.80;;;9.00;99.90;;;;;;5017535;28;20025;-67
2023/04/14 08:25:47;;;;;;;7.78;3.33;;;9.10;99.90;;;;;;5014455;28;20025;-68
2023/04/14 08:28:16;;;;;;;7.05;3.40;;;9.20;99.90;;;;;;5015356;28;20052;-69
2023/04/14 08:30:41;;;;;;;4.82;3.45;;;9.30;99.90;;;;;;5015944;28;20041;-69
2023/04/14 08:33:07;;;;;;;6.63;2.90;;;9.50;99.90;;;;;;5016527;28;20115;-69
2023/04/14 08:35:34;;;;;;;7.30;3.03;;;9.50;99.90;;;;;;5041551;28;20054;-70
2023/04/14 08:38:00;;;;;;;8.82;2.90;;;9.70;99.90;;;;;;5014729;28;20029;-70
2023/04/14 08:40:42;;;;;;;7.47;2.72;;;9.70;99.90;;;;;;5013515;28;20575;-70
2023/04/14 08:43:08;;;;;;;13.60;3.30;;;9.70;99.90;;;;;;5046001;28;20034;-73
2023/04/14 08:45:35;;;;;;;5.75;2.05;;;9.70;99.90;;;;;;5016461;28;20117;-70
2023/04/14 08:48:02;;;;;;;10.10;2.65;;;9.80;99.90;;;;;;5014144;28;20116;-70
2023/04/14 08:50:44;;;;;;;3.95;1.60;;;9.80;99.90;;;;;;5013739;28;20057;-71
2023/04/14 08:53:12;;;;;;;4.63;2.00;;;9.80;99.90;;;;;;5013804;28;20409;-69
2023/04/14 08:55:41;;;;;;;6.57;1.70;;;9.90;99.90;;;;;;5014876;28;20036;-69
2023/04/14 08:58:09;;;;;;;8.32;1.70;;;9.90;99.90;;;;;;5013058;28;20276;-70
2023/04/14 09:00:36;;;;;;;6.22;1.85;;;9.90;99.90;;;;;;5011729;28;20049;-73
2023/04/14 09:03:02;;;;;;;3.97;1.50;;;10.00;99.90;;;;;;5013942;28;20509;-68
2023/04/14 09:05:28;;;;;;;4.40;1.33;;;10.10;99.90;;;;;;5012931;28;20061;-70
2023/04/14 09:07:55;;;;;;;6.63;1.70;;;10.10;99.90;;;;;;5015940;28;20472;-68
2023/04/14 09:10:22;;;;;;;5.93;2.00;;;10.20;99.90;;;;;;5013562;28;20034;-68
2023/04/14 09:12:47;;;;;;;5.13;1.55;;;10.20;99.90;;;;;;5015699;28;20029;-70
2023/04/14 09:15:15;;;;;;;6.05;1.80;;;10.30;99.90;;;;;;5015656;28;20421;-67
2023/04/14 09:17:41;;;;;;;8.45;1.70;;;10.40;99.90;;;;;;4997342;28;20108;-69
2023/04/14 09:20:07;;;;;;;6.53;1.85;;;10.50;99.90;;;;;;5014450;28;20030;-69
2023/04/14 09:22:33;;;;;;;6.30;1.42;;;10.60;99.90;;;;;;5014706;28;20029;-69
2023/04/14 09:24:59;;;;;;;5.75;1.65;;;10.60;99.90;;;;;;5013837;28;20030;-69
2023/04/14 09:27:25;;;;;;;4.78;1.73;;;10.70;99.90;;;;;;5013698;28;20029;-69
2023/04/14 09:29:55;;;;;;;6.07;1.40;;;10.80;99.90;;;;;;5016269;28;20113;-70
2023/04/14 09:32:21;;;;;;;6.60;1.60;;;11.00;99.90;;;;;;5019270;28;20136;-69
2023/04/14 09:34:52;;;;;;;3.88;1.50;;;11.00;99.90;;;;;;5012508;28;20025;-69
2023/04/14 09:37:19;;;;;;;4.47;1.20;;;11.10;99.90;;;;;;5019455;28;20040;-70
2023/04/14 09:39:54;;;;;;;5.18;1.42;;;11.30;99.90;;;;;;5050482;28;20033;-70
2023/04/14 09:42:39;;;;;;;4.07;1.27;;;11.20;99.90;;;;;;5004399;28;20172;-70
2023/04/14 09:45:07;;;;;;;5.18;1.40;;;11.10;99.90;;;;;;5017113;28;20034;-69
2023/04/14 09:47:32;;;;;;;5.38;1.63;;;11.10;99.90;;;;;;5016419;28;20053;-69
2023/04/14 09:50:02;;;;;;;6.45;1.58;;;11.30;99.90;;;;;;5015954;28;20038;-68
2023/04/14 09:52:57;;;;;;;8.82;1.40;;;11.30;99.90;;;;;;5020332;28;20497;-70
2023/04/14 09:55:23;;;;;;;5.78;1.40;;;11.30;99.90;;;;;;5012580;28;20057;-69
2023/04/14 09:57:50;;;;;;;3.55;1.20;;;11.50;99.90;;;;;;5051459;28;20042;-70
2023/04/14 10:00:17;;;;;;;6.80;1.63;;;11.60;99.90;;;;;;5017935;28;20032;-68
2023/04/14 10:02:48;;;;;;;6.13;1.45;;;11.50;99.90;;;;;;5015876;28;20504;-68
2023/04/14 10:05:14;;;;;;;7.35;1.42;;;11.40;99.90;;;;;;5019188;28;20397;-70
2023/04/14 10:07:40;;;;;;;4.25;1.38;;;11.50;99.90;;;;;;5012274;28;20045;-68
2023/04/14 10:10:10;;;;;;;9.40;1.83;;;11.60;99.90;;;;;;5018138;28;20121;-70
2023/04/14 10:12:36;;;;;;;6.13;2.00;;;11.60;99.90;;;;;;5012617;28;20034;-68
2023/04/14 10:15:03;;;;;;;9.38;2.38;;;11.80;99.90;;;;;;5016103;28;20478;-70
2023/04/14 10:17:29;;;;;;;4.43;1.20;;;11.70;99.90;;;;;;5012187;28;20029;-69
2023/04/14 10:19:55;;;;;;;6.63;2.08;;;11.80;99.90;;;;;;5010713;28;20030;-69
2023/04/14 10:22:22;;;;;;;7.75;1.52;;;11.90;99.90;;;;;;5013918;28;20030;-67
2023/04/14 10:24:50;;;;;;;6.53;1.50;;;12.00;99.90;;;;;;5015244;28;20178;-68
2023/04/14 10:27:16;;;;;;;4.43;0.90;;;12.10;99.90;;;;;;5016101;28;20072;-69
2023/04/14 10:29:41;;;;;;;4.80;1.27;;;12.30;99.90;;;;;;5012979;28;20072;-69
2023/04/14 10:32:12;;;;;;;7.15;1.85;;;12.40;99.90;;;;;;5016981;28;20423;-69
2023/04/14 10:34:52;;;;;;;4.50;1.53;;;12.30;99.90;;;;;;5013888;28;20041;-70
2023/04/14 10:37:17;;;;;;;5.88;1.23;;;12.30;99.90;;;;;;5032551;28;20509;-68
2023/04/14 10:39:54;;;;;;;4.43;1.25;;;12.30;99.90;;;;;;5012962;28;20029;-69
2023/04/14 10:42:20;;;;;;;5.28;1.30;;;12.40;99.90;;;;;;5016516;28;20025;-70
2023/04/14 10:45:04;;;;;;;7.40;1.60;;;12.50;99.90;;;;;;5015590;28;20512;-69
2023/04/14 10:47:31;;;;;;;7.45;1.80;;;12.90;99.90;;;;;;5016029;28;20091;-70
2023/04/14 10:49:57;;;;;;;6.95;2.03;;;13.00;99.90;;;;;;5015238;28;20035;-69
2023/04/14 10:52:24;;;;;;;5.53;1.48;;;12.90;99.90;;;;;;5017031;28;20034;-69
2023/04/14 10:54:54;;;;;;;5.25;1.60;;;13.00;99.90;;;;;;5017938;28;20022;-69
2023/04/14 10:57:25;;;;;;;7.13;1.30;;;13.10;99.90;;;;;;5017666;28;20026;-70
2023/04/14 10:59:55;;;;;;;;;;;13.10;99.90;;;;;;5023226;28;20090;-70
2023/04/14 11:02:24;;;;;;;4.63;1.40;;;13.30;99.90;;;;;;5021129;28;19924;-71
2023/04/14 11:05:04;;;;;;;6.60;1.60;;;13.20;99.90;;;;;;5021581;28;20026;-69
2023/04/14 11:07:35;;;;;;;8.90;2.17;;;13.20;98.50;;;;;;5017145;28;20044;-70
2023/04/14 11:10:16;;;;;;;5.18;1.35;;;13.00;98.70;;;;;;5052880;28;20042;-70
2023/04/14 11:12:43;;;;;;;10.63;2.03;;;13.30;99.90;;;;;;5017800;28;20087;-71
2023/04/14 11:15:10;;;;;;;8.32;1.73;;;13.40;98.90;;;;;;5017176;28;20030;-70
2023/04/14 11:17:41;;;;;;;5.00;1.30;;;13.40;99.70;;;;;;5011589;28;20034;-69
2023/04/14 11:20:22;;;;;;;6.50;1.67;;;13.50;99.40;;;;;;5018075;28;20030;-69
2023/04/14 11:22:51;;;;;;;3.17;1.38;;;13.50;99.00;;;;;;5015259;28;20034;-70
2023/04/14 11:25:19;;;;;;;4.82;1.50;;;13.70;98.00;;;;;;5014663;28;20057;-72
2023/04/14 11:27:47;;;;;;;4.30;1.55;;;13.90;98.00;;;;;;5011338;28;20535;-68
2023/04/14 11:30:15;;;;;;;6.28;1.23;;;14.30;97.90;;;;;;5009606;28;20099;-69
2023/04/14 11:32:52;;;;;;;4.90;1.45;;;14.50;97.20;;;;;;5013096;28;20026;-69
2023/04/14 11:35:19;;;;;;;4.45;1.20;;;14.30;95.90;;;;;;5048980;28;20033;-67
2023/04/14 11:37:45;;;;;;;5.32;1.27;;;14.10;96.00;;;;;;5016807;28;20536;-68
2023/04/14 11:40:12;;;;;;;4.90;1.20;;;13.80;97.20;;;;;;5011454;28;20044;-67
2023/04/14 11:42:43;;;;;;;2.55;0.98;;;13.70;97.30;;;;;;5015870;28;20128;-69
2023/04/14 11:45:09;;;;;;;5.05;1.75;;;13.80;98.70;;;;;;5016288;28;21108;-68
2023/04/14 11:47:35;;;;;;;4.03;1.20;;;13.50;98.00;;;;;;4998622;28;20399;-69
2023/04/14 11:50:04;;;;;;;6.05;1.50;;;13.30;98.80;;;;;;5016435;28;20053;-67
2023/04/14 11:52:32;;;;;;;5.18;1.40;;;13.30;99.40;;;;;;5015435;28;20029;-70
2023/04/14 11:54:58;;;;;;;3.33;1.40;;;13.30;99.70;;;;;;5013545;28;20029;-66
2023/04/14 11:57:24;;;;;;;5.68;1.83;;;13.20;99.90;;;;;;5016368;28;20070;-67
2023/04/14 11:59:50;;;;;;;6.80;1.63;;;13.20;99.90;;;;;;5013657;28;20036;-67
2023/04/14 12:02:19;;;;;;;5.18;1.50;;;13.00;99.90;;;;;;5011810;28;20030;-67
2023/04/14 12:04:45;;;;;;;4.72;1.63;;;13.00;99.90;;;;;;5013187;28;20107;-69
2023/04/14 12:07:13;;;;;;;4.50;1.50;;;13.10;99.90;;;;;;5014618;28;20026;-67
2023/04/14 12:09:42;;;;;;;4.00;1.30;;;13.30;99.90;;;;;;5046587;28;20033;-70
2023/04/14 12:12:13;;;;;;;2.40;1.10;;;13.40;99.90;;;;;;5014793;28;20038;-68
2023/04/14 12:14:40;;;;;;;;;;;13.40;99.90;;;;;;5017180;28;20068;-69
2023/04/14 12:17:09;;;;;;;4.80;1.63;;;13.20;99.90;;;;;;5017032;28;20373;-67
2023/04/14 12:19:36;;;;;;;4.85;1.88;;;13.10;99.90;;;;;;5013097;28;20062;-68
2023/04/14 12:22:06;;;;;;;5.78;1.90;;;13.20;99.90;;;;;;4998617;28;20117;-68
2023/04/14 12:24:40;;;;;;;4.78;2.00;;;13.30;99.90;;;;;;5012879;28;20537;-69
2023/04/14 12:27:08;;;;;;;4.10;1.90;;;13.50;99.90;;;;;;5013734;28;20034;-69
2023/04/14 12:29:37;;;;;;;4.80;2.17;;;13.40;99.90;;;;;;5016052;28;20040;-67
2023/04/14 12:32:14;;;;;;;4.20;2.08;;;13.00;99.90;;;;;;5014569;28;20501;-68
2023/04/14 12:34:40;;;;;;;5.32;2.22;;;13.00;99.90;;;;;;5013812;28;20039;-68
2023/04/14 12:37:11;;;;;;;8.55;2.80;;;12.90;99.90;;;;;;5011323;28;20579;-68
2023/04/14 12:39:51;;;;;;;7.82;2.60;;;12.70;99.90;;;;;;5010564;28;20033;-69
2023/04/14 12:42:18;;;;;;;6.07;2.70;;;12.80;99.90;;;;;;5012982;28;20029;-70
2023/04/14 12:44:59;;;;;;;6.35;2.67;;;12.90;99.90;;;;;;5009472;28;20038;-68
2023/04/14 12:47:29;;;;;;;11.27;4.80;;;13.20;99.90;;;;;;5010207;28;20036;-71
2023/04/14 12:49:57;;;;;;;6.60;2.83;;;13.50;99.90;;;;;;5015233;28;20048;-68
2023/04/14 12:52:37;;;;;;;6.32;2.65;;;13.30;99.90;;;;;;5014994;28;20033;-67
2023/04/14 12:55:05;;;;;;;4.93;2.38;;;13.40;99.90;;;;;;5015910;28;20156;-67